Time;durP1;ratioP1;P1;durP2;ratioP2;P2;SDS_P1;SDS_P2;PMS_P1;PMS_P2;Temp;Humidity;BMP_temperature;BMP_pressure;BME280_temperature;BME280_humidity;BME280_pressure;Samples;Min_cycle;Max_cycle;Signal;HPM_P1;HPM_P2
2021/09/19 00:00:09;;;;;;;9.35;8.27;;;;;;;;;;5096257;28;20048;-85
2021/09/19 00:02:35;;;;;;;8.70;7.90;;;;;;;;;;5079279;28;20083;-84
2021/09/19 00:05:01;;;;;;;8.77;7.88;;;;;;;;;;5079072;28;20055;-83
2021/09/19 00:07:27;;;;;;;8.80;7.90;;;;;;;;;;5096734;28;20166;-84
2021/09/19 00:09:53;;;;;;;9.82;8.57;;;;;;;;;;5080002;28;20452;-83
2021/09/19 00:12:19;;;;;;;9.27;8.35;;;;;;;;;;5079084;28;20047;-84
2021/09/19 00:14:45;;;;;;;8.93;8.13;;;;;;;;;;5079103;28;20066;-84
2021/09/19 00:17:11;;;;;;;8.93;8.02;;;;;;;;;;5079316;28;20050;-84
2021/09/19 00:19:38;;;;;;;8.63;7.80;;;;;;;;;;5096540;28;20083;-84
2021/09/19 00:22:04;;;;;;;8.13;7.40;;;;;;;;;;5079026;28;20043;-83
2021/09/19 00:24:30;;;;;;;8.70;7.80;;;;;;;;;;5095837;28;20108;-84
2021/09/19 00:26:57;;;;;;;8.60;7.70;;;;;;;;;;5078679;28;20113;-83
2021/09/19 00:29:23;;;;;;;8.18;7.13;;;;;;;;;;5095697;28;20555;-83
2021/09/19 00:31:49;;;;;;;8.65;7.65;;;;;;;;;;5078799;28;20043;-83
2021/09/19 00:34:15;;;;;;;8.43;7.53;;;;;;;;;;5078810;28;20058;-86
2021/09/19 00:36:41;;;;;;;9.05;6.85;;;;;;;;;;5078571;28;20044;-84
2021/09/19 00:39:08;;;;;;;7.95;6.97;;;;;;;;;;5078903;28;20044;-83
2021/09/19 00:41:34;;;;;;;7.38;6.50;;;;;;;;;;5096081;28;20055;-83
2021/09/19 00:44:07;;;;;;;7.00;6.40;;;;;;;;;;5096125;28;20483;-84
2021/09/19 00:46:33;;;;;;;7.47;6.78;;;;;;;;;;5078750;28;20099;-83
2021/09/19 00:48:59;;;;;;;6.97;6.18;;;;;;;;;;5095736;28;20460;-84
2021/09/19 00:51:27;;;;;;;7.10;6.03;;;;;;;;;;5078584;28;20505;-84
2021/09/19 00:53:55;;;;;;;7.35;6.20;;;;;;;;;;5096265;28;20044;-84
2021/09/19 00:56:24;;;;;;;6.47;5.47;;;;;;;;;;5095666;28;20058;-84
2021/09/19 00:58:51;;;;;;;6.25;5.65;;;;;;;;;;5079003;28;20043;-84
2021/09/19 01:01:18;;;;;;;6.15;5.55;;;;;;;;;;5096149;28;20039;-85
2021/09/19 01:03:44;;;;;;;7.05;5.80;;;;;;;;;;5078529;28;20443;-84
2021/09/19 01:06:12;;;;;;;5.85;5.22;;;;;;;;;;5094618;28;20044;-83
2021/09/19 01:08:42;;;;;;;6.35;5.60;;;;;;;;;;5078490;28;20047;-84
2021/09/19 01:11:20;;;;;;;5.63;5.05;;;;;;;;;;5096169;28;20047;-83
2021/09/19 01:13:46;;;;;;;6.20;5.45;;;;;;;;;;5078625;28;20043;-83
2021/09/19 01:16:14;;;;;;;6.85;5.40;;;;;;;;;;5079245;28;20371;-83
2021/09/19 01:18:41;;;;;;;5.72;4.95;;;;;;;;;;5078414;28;20472;-84
2021/09/19 01:21:09;;;;;;;6.88;4.60;;;;;;;;;;5095297;28;20043;-83
2021/09/19 01:23:36;;;;;;;5.63;4.85;;;;;;;;;;5078349;28;20113;-84
2021/09/19 01:26:04;;;;;;;5.90;4.63;;;;;;;;;;5078448;28;20395;-84
2021/09/19 01:28:30;;;;;;;5.20;4.70;;;;;;;;;;5078783;28;20043;-83
2021/09/19 01:30:57;;;;;;;6.32;4.32;;;;;;;;;;5094923;28;20048;-83
2021/09/19 01:33:23;;;;;;;5.03;4.50;;;;;;;;;;5095071;28;20050;-83
2021/09/19 01:35:49;;;;;;;5.32;4.45;;;;;;;;;;5095857;28;20348;-83
2021/09/19 01:38:16;;;;;;;5.45;4.75;;;;;;;;;;5095221;28;20052;-84
2021/09/19 01:40:42;;;;;;;5.15;4.65;;;;;;;;;;5098352;28;20044;-83
2021/09/19 01:43:08;;;;;;;5.15;4.45;;;;;;;;;;5082130;28;20050;-83
2021/09/19 01:45:34;;;;;;;4.90;4.45;;;;;;;;;;5082560;28;20043;-83
2021/09/19 01:48:01;;;;;;;6.03;4.97;;;;;;;;;;5098809;28;20502;-83
2021/09/19 01:50:28;;;;;;;5.25;4.47;;;;;;;;;;5082505;28;20079;-84
2021/09/19 01:52:54;;;;;;;4.55;4.00;;;;;;;;;;5081662;28;20411;-84
2021/09/19 01:55:21;;;;;;;4.38;3.83;;;;;;;;;;5081407;28;20044;-84
2021/09/19 01:57:47;;;;;;;7.00;4.78;;;;;;;;;;5098363;28;20051;-83
2021/09/19 02:00:14;;;;;;;5.65;5.05;;;;;;;;;;5098526;28;20058;-84
2021/09/19 02:02:40;;;;;;;4.75;4.35;;;;;;;;;;5098736;28;20043;-83
2021/09/19 02:05:08;;;;;;;7.03;4.80;;;;;;;;;;5081114;28;20056;-84
2021/09/19 02:07:35;;;;;;;6.15;5.47;;;;;;;;;;5081392;28;20059;-84
2021/09/19 02:10:01;;;;;;;7.15;5.60;;;;;;;;;;5081515;28;20047;-83
2021/09/19 02:12:28;;;;;;;5.85;5.25;;;;;;;;;;5081455;28;20040;-84
2021/09/19 02:14:54;;;;;;;6.18;5.50;;;;;;;;;;5081282;28;20522;-83
2021/09/19 02:17:20;;;;;;;6.88;5.97;;;;;;;;;;5081335;28;20046;-84
2021/09/19 02:19:46;;;;;;;6.35;5.38;;;;;;;;;;5098240;28;20050;-83
2021/09/19 02:22:13;;;;;;;5.97;5.43;;;;;;;;;;5098452;28;20055;-84
2021/09/19 02:24:39;;;;;;;6.47;5.88;;;;;;;;;;5098263;28;20088;-83
2021/09/19 02:27:06;;;;;;;6.57;5.93;;;;;;;;;;5081169;28;20476;-83
2021/09/19 02:29:32;;;;;;;6.57;5.97;;;;;;;;;;5098235;28;20060;-83
2021/09/19 02:31:58;;;;;;;6.70;6.10;;;;;;;;;;5081059;28;20492;-83
2021/09/19 02:34:26;;;;;;;6.35;5.75;;;;;;;;;;5097904;28;20047;-84
2021/09/19 02:36:53;;;;;;;6.70;6.10;;;;;;;;;;5081037;28;20047;-83
2021/09/19 02:39:19;;;;;;;7.03;6.30;;;;;;;;;;5081032;28;20043;-84
2021/09/19 02:41:45;;;;;;;7.63;6.38;;;;;;;;;;5081211;28;20040;-83
2021/09/19 02:44:11;;;;;;;7.07;6.38;;;;;;;;;;5097823;28;20471;-84
2021/09/19 02:46:37;;;;;;;7.60;6.80;;;;;;;;;;5081038;28;20075;-84
2021/09/19 02:49:04;;;;;;;6.90;6.30;;;;;;;;;;5080586;28;20051;-83
2021/09/19 02:51:30;;;;;;;7.68;6.97;;;;;;;;;;5097718;28;20495;-84
2021/09/19 02:53:56;;;;;;;7.25;6.55;;;;;;;;;;5080724;28;20177;-83
2021/09/19 02:56:22;;;;;;;8.32;6.82;;;;;;;;;;5080572;28;20043;-84
2021/09/19 02:58:48;;;;;;;8.40;7.25;;;;;;;;;;5097536;28;20039;-84
2021/09/19 03:01:15;;;;;;;10.15;7.32;;;;;;;;;;5080638;28;20345;-84
2021/09/19 03:03:41;;;;;;;8.70;7.72;;;;;;;;;;5080688;28;20503;-83
2021/09/19 03:06:08;;;;;;;9.88;7.47;;;;;;;;;;5096609;28;20061;-83
2021/09/19 03:08:34;;;;;;;8.50;7.60;;;;;;;;;;5096881;28;20055;-83
2021/09/19 03:11:00;;;;;;;8.52;7.63;;;;;;;;;;5097265;28;20047;-84
2021/09/19 03:13:26;;;;;;;8.38;7.53;;;;;;;;;;5097176;28;20044;-83
2021/09/19 03:15:52;;;;;;;9.48;8.38;;;;;;;;;;5097243;28;20047;-83
2021/09/19 03:18:18;;;;;;;7.93;7.18;;;;;;;;;;5079861;28;20047;-85
2021/09/19 03:20:45;;;;;;;10.13;8.40;;;;;;;;;;5080130;28;20556;-84
2021/09/19 03:23:11;;;;;;;8.82;8.02;;;;;;;;;;5080261;28;20043;-83
2021/09/19 03:25:37;;;;;;;8.57;7.78;;;;;;;;;;5079931;28;20035;-83
2021/09/19 03:28:03;;;;;;;8.50;7.68;;;;;;;;;;5097006;28;20105;-83
2021/09/19 03:30:29;;;;;;;8.30;7.50;;;;;;;;;;5096655;28;20071;-83
2021/09/19 03:32:55;;;;;;;8.80;7.95;;;;;;;;;;5096879;28;20043;-83
2021/09/19 03:35:21;;;;;;;9.35;7.90;;;;;;;;;;5096777;28;20430;-85
2021/09/19 03:37:47;;;;;;;9.27;8.35;;;;;;;;;;5079851;28;20047;-84
2021/09/19 03:40:14;;;;;;;9.57;8.57;;;;;;;;;;5079866;28;20123;-83
2021/09/19 03:42:40;;;;;;;9.10;8.20;;;;;;;;;;5079507;28;20548;-84
2021/09/19 03:45:06;;;;;;;9.18;8.23;;;;;;;;;;5079970;28;20399;-83
2021/09/19 03:47:34;;;;;;;10.23;9.23;;;;;;;;;;5079555;28;20122;-83
2021/09/19 03:50:00;;;;;;;10.60;9.50;;;;;;;;;;5079613;28;20408;-83
2021/09/19 03:52:26;;;;;;;9.95;7.70;;;;;;;;;;5096610;28;20147;-84
2021/09/19 03:54:52;;;;;;;10.55;9.45;;;;;;;;;;5079545;28;20493;-83
2021/09/19 03:57:18;;;;;;;9.80;8.20;;;;;;;;;;5080181;28;20363;-85
2021/09/19 03:59:44;;;;;;;11.85;9.40;;;;;;;;;;5079424;28;20138;-84
2021/09/19 04:02:10;;;;;;;9.50;8.57;;;;;;;;;;5078867;28;20050;-83
2021/09/19 04:04:36;;;;;;;9.38;8.40;;;;;;;;;;5096154;28;20103;-84
2021/09/19 04:07:02;;;;;;;10.88;8.80;;;;;;;;;;5078876;28;20483;-83
2021/09/19 04:09:28;;;;;;;9.55;8.55;;;;;;;;;;5096131;28;20399;-84
2021/09/19 04:11:56;;;;;;;12.30;8.57;;;;;;;;;;5096818;28;20054;-84
2021/09/19 04:14:22;;;;;;;9.68;7.47;;;;;;;;;;5095694;28;20055;-83
2021/09/19 04:16:48;;;;;;;9.50;7.53;;;;;;;;;;5096280;28;20039;-83
2021/09/19 04:19:15;;;;;;;9.23;7.65;;;;;;;;;;5096779;28;20176;-83
2021/09/19 04:21:41;;;;;;;8.88;6.95;;;;;;;;;;5096089;28;20100;-83
2021/09/19 04:24:07;;;;;;;9.27;6.50;;;;;;;;;;5079825;28;20048;-83
2021/09/19 04:26:33;;;;;;;9.35;6.57;;;;;;;;;;5096143;28;20047;-83
2021/09/19 04:28:59;;;;;;;9.93;6.28;;;;;;;;;;5078109;28;20063;-84
2021/09/19 04:31:25;;;;;;;9.50;5.88;;;;;;;;;;5095245;28;20043;-83
2021/09/19 04:33:51;;;;;;;7.53;5.50;;;;;;;;;;5079144;28;20054;-84
2021/09/19 04:36:17;;;;;;;6.30;5.50;;;;;;;;;;5095784;28;20531;-84
2021/09/19 04:38:43;;;;;;;6.40;4.90;;;;;;;;;;5095609;28;20043;-84
2021/09/19 04:41:09;;;;;;;7.55;5.22;;;;;;;;;;5079636;28;20124;-84
2021/09/19 04:43:35;;;;;;;7.97;5.50;;;;;;;;;;5078730;28;20047;-83
2021/09/19 04:46:01;;;;;;;7.00;5.50;;;;;;;;;;5079617;28;20063;-84
2021/09/19 04:48:27;;;;;;;6.47;5.00;;;;;;;;;;5078540;28;20134;-83
2021/09/19 04:50:54;;;;;;;7.03;5.00;;;;;;;;;;5078854;28;20645;-84
2021/09/19 04:53:20;;;;;;;7.50;4.78;;;;;;;;;;5095610;28;20047;-86
2021/09/19 04:55:46;;;;;;;6.43;5.10;;;;;;;;;;5096261;28;20058;-84
2021/09/19 04:58:12;;;;;;;6.32;4.95;;;;;;;;;;5078949;28;20043;-84
2021/09/19 05:00:38;;;;;;;6.25;5.18;;;;;;;;;;5078615;28;20047;-83
2021/09/19 05:03:04;;;;;;;9.20;5.40;;;;;;;;;;5095304;28;20139;-85
2021/09/19 05:05:30;;;;;;;10.05;5.28;;;;;;;;;;5078236;28;20060;-85
2021/09/19 05:07:56;;;;;;;7.45;5.57;;;;;;;;;;5095031;28;20126;-83
2021/09/19 05:10:22;;;;;;;8.85;5.57;;;;;;;;;;5078791;28;20078;-84
2021/09/19 05:12:48;;;;;;;8.77;5.20;;;;;;;;;;5095366;28;20047;-84
2021/09/19 05:15:14;;;;;;;6.95;5.60;;;;;;;;;;5081056;28;20471;-84
2021/09/19 05:17:40;;;;;;;7.32;5.80;;;;;;;;;;5099546;28;20040;-84
2021/09/19 05:20:07;;;;;;;7.95;5.82;;;;;;;;;;5099087;28;20044;-85
2021/09/19 05:22:33;;;;;;;7.82;5.72;;;;;;;;;;5099349;28;20391;-84
2021/09/19 05:24:59;;;;;;;8.57;6.13;;;;;;;;;;5099634;28;20127;-84
2021/09/19 05:27:25;;;;;;;8.25;5.85;;;;;;;;;;5082486;28;20044;-84
2021/09/19 05:29:51;;;;;;;9.25;5.70;;;;;;;;;;5099517;28;20046;-84
2021/09/19 05:32:17;;;;;;;8.73;6.10;;;;;;;;;;5081851;28;20048;-84
2021/09/19 05:34:43;;;;;;;8.02;5.72;;;;;;;;;;5099749;28;20298;-84
2021/09/19 05:37:09;;;;;;;8.55;5.47;;;;;;;;;;5099108;28;20135;-84
2021/09/19 05:39:35;;;;;;;9.32;5.82;;;;;;;;;;5082569;28;20066;-84
2021/09/19 05:42:01;;;;;;;8.45;5.43;;;;;;;;;;5082745;28;20158;-83
2021/09/19 05:44:28;;;;;;;11.88;5.47;;;;;;;;;;5082711;28;20062;-83
2021/09/19 05:46:54;;;;;;;8.35;5.22;;;;;;;;;;5098699;28;20138;-83
2021/09/19 05:49:20;;;;;;;11.23;5.93;;;;;;;;;;5098555;28;20044;-85
2021/09/19 05:51:46;;;;;;;7.60;5.65;;;;;;;;;;5098493;28;20043;-84
2021/09/19 05:54:12;;;;;;;9.02;5.65;;;;;;;;;;5081924;28;20052;-83
2021/09/19 05:56:38;;;;;;;8.32;5.53;;;;;;;;;;5081474;28;20048;-83
2021/09/19 05:59:04;;;;;;;7.45;5.28;;;;;;;;;;5081727;28;20132;-83
2021/09/19 06:01:30;;;;;;;7.43;5.68;;;;;;;;;;5081683;28;20173;-84
2021/09/19 06:03:56;;;;;;;10.57;5.88;;;;;;;;;;5081432;28;20483;-84
2021/09/19 06:06:22;;;;;;;7.80;5.57;;;;;;;;;;5067511;28;20049;-85
2021/09/19 06:08:48;;;;;;;7.32;5.40;;;;;;;;;;5058709;28;20044;-85
2021/09/19 06:11:15;;;;;;;7.60;5.43;;;;;;;;;;5058427;28;20110;-84
2021/09/19 06:13:41;;;;;;;6.93;5.68;;;;;;;;;;5074676;28;20476;-84
2021/09/19 06:16:07;;;;;;;10.05;5.40;;;;;;;;;;5075484;28;20055;-84
2021/09/19 06:18:34;;;;;;;6.75;5.25;;;;;;;;;;5058147;28;20094;-85
2021/09/19 06:21:00;;;;;;;6.03;5.13;;;;;;;;;;5058697;28;20058;-84
2021/09/19 06:23:26;;;;;;;8.30;5.57;;;;;;;;;;5058534;28;20044;-85
2021/09/19 06:25:52;;;;;;;7.60;5.22;;;;;;;;;;5073672;28;20088;-84
2021/09/19 06:28:19;;;;;;;7.88;5.70;;;;;;;;;;5057632;28;20048;-84
2021/09/19 06:30:45;;;;;;;8.45;5.57;;;;;;;;;;5058171;28;20044;-83
2021/09/19 06:33:11;;;;;;;9.02;5.70;;;;;;;;;;5057624;28;20048;-84
2021/09/19 06:35:37;;;;;;;7.03;5.35;;;;;;;;;;5074248;28;20056;-84
2021/09/19 06:38:03;;;;;;;9.85;5.53;;;;;;;;;;5057821;28;20447;-84
2021/09/19 06:40:29;;;;;;;8.35;5.53;;;;;;;;;;5074154;28;20044;-84
2021/09/19 06:42:55;;;;;;;8.73;5.70;;;;;;;;;;5057732;28;20094;-84
2021/09/19 06:45:21;;;;;;;12.13;6.15;;;;;;;;;;5073868;28;20081;-86
2021/09/19 06:47:47;;;;;;;7.72;5.50;;;;;;;;;;5056802;28;20535;-84
2021/09/19 06:50:14;;;;;;;7.45;5.18;;;;;;;;;;5057367;28;20048;-83
2021/09/19 06:52:40;;;;;;;6.65;5.20;;;;;;;;;;5057306;28;20045;-84
2021/09/19 06:55:06;;;;;;;7.55;5.75;;;;;;;;;;5057327;28;20048;-84
2021/09/19 06:57:32;;;;;;;8.70;5.53;;;;;;;;;;5057135;28;20059;-84
2021/09/19 06:59:58;;;;;;;10.20;6.03;;;;;;;;;;5057190;28;20060;-84
2021/09/19 07:02:24;;;;;;;8.18;6.55;;;;;;;;;;5074535;28;20047;-87
2021/09/19 07:04:51;;;;;;;7.13;6.38;;;;;;;;;;5073921;28;20036;-85
2021/09/19 07:07:18;;;;;;;9.68;6.75;;;;;;;;;;5073437;28;20510;-85
2021/09/19 07:09:45;;;;;;;8.15;5.93;;;;;;;;;;5073587;28;20052;-84
2021/09/19 07:12:11;;;;;;;8.25;6.30;;;;;;;;;;5056924;28;20504;-85
2021/09/19 07:14:38;;;;;;;9.77;6.65;;;;;;;;;;5057524;28;20448;-84
2021/09/19 07:17:04;;;;;;;8.43;6.03;;;;;;;;;;5073506;28;20059;-84
2021/09/19 07:19:30;;;;;;;8.82;6.63;;;;;;;;;;5073385;28;20477;-85
2021/09/19 07:21:56;;;;;;;9.98;6.10;;;;;;;;;;5057056;28;20048;-84
2021/09/19 07:24:22;;;;;;;8.07;6.22;;;;;;;;;;5057536;28;20055;-84
2021/09/19 07:26:48;;;;;;;8.63;6.25;;;;;;;;;;5073996;28;20062;-84
2021/09/19 07:29:14;;;;;;;8.15;6.22;;;;;;;;;;5072930;28;20040;-85
2021/09/19 07:31:41;;;;;;;7.15;6.40;;;;;;;;;;5056409;28;20488;-84
2021/09/19 07:34:07;;;;;;;9.20;6.10;;;;;;;;;;5073149;28;20056;-84
2021/09/19 07:36:34;;;;;;;9.00;6.40;;;;;;;;;;5072347;28;20218;-84
2021/09/19 07:39:02;;;;;;;9.57;6.35;;;;;;;;;;5056591;28;20485;-85
2021/09/19 07:41:29;;;;;;;9.27;5.80;;;;;;;;;;5056368;28;20052;-85
2021/09/19 07:43:55;;;;;;;8.60;6.28;;;;;;;;;;5073110;28;20044;-84
2021/09/19 07:46:21;;;;;;;8.77;5.85;;;;;;;;;;5056473;28;20106;-84
2021/09/19 07:48:48;;;;;;;7.80;6.22;;;;;;;;;;5072902;28;20485;-85
2021/09/19 07:51:14;;;;;;;8.85;6.28;;;;;;;;;;5072914;28;20056;-86
2021/09/19 07:53:40;;;;;;;7.97;6.10;;;;;;;;;;5073353;28;20095;-84
2021/09/19 07:56:07;;;;;;;8.63;6.03;;;;;;;;;;5056223;28;20052;-85
2021/09/19 07:58:33;;;;;;;9.75;6.03;;;;;;;;;;5073346;28;20140;-84
2021/09/19 08:00:59;;;;;;;9.65;6.22;;;;;;;;;;5056051;28;20040;-84
2021/09/19 08:03:25;;;;;;;9.43;6.45;;;;;;;;;;5055958;28;20056;-85
2021/09/19 08:05:51;;;;;;;7.90;6.53;;;;;;;;;;5072440;28;20057;-84
2021/09/19 08:08:17;;;;;;;9.55;6.57;;;;;;;;;;5056499;28;20102;-84
2021/09/19 08:10:43;;;;;;;7.82;6.60;;;;;;;;;;5072795;28;20048;-84
2021/09/19 08:13:09;;;;;;;10.13;6.95;;;;;;;;;;5055836;28;20044;-84
2021/09/19 08:15:35;;;;;;;9.88;7.30;;;;;;;;;;5055795;28;20479;-83
2021/09/19 08:18:01;;;;;;;10.80;7.00;;;;;;;;;;5055505;28;20131;-83
2021/09/19 08:20:27;;;;;;;9.43;6.75;;;;;;;;;;5055742;28;20102;-87
2021/09/19 08:22:53;;;;;;;8.70;6.47;;;;;;;;;;5072597;28;20485;-84
2021/09/19 08:25:20;;;;;;;8.80;6.60;;;;;;;;;;5055958;28;20059;-85
2021/09/19 08:27:46;;;;;;;10.35;6.15;;;;;;;;;;5055513;28;20052;-84
2021/09/19 08:30:13;;;;;;;9.80;6.57;;;;;;;;;;5056232;28;20541;-84
2021/09/19 08:32:39;;;;;;;8.48;6.47;;;;;;;;;;5072166;28;20084;-84
2021/09/19 08:35:06;;;;;;;8.48;6.63;;;;;;;;;;5072818;28;20421;-84
2021/09/19 08:37:33;;;;;;;7.18;6.15;;;;;;;;;;5056094;28;20090;-83
2021/09/19 08:39:59;;;;;;;8.00;6.43;;;;;;;;;;5072189;28;20051;-83
2021/09/19 08:42:25;;;;;;;14.57;7.50;;;;;;;;;;5072378;28;20045;-84
2021/09/19 08:44:51;;;;;;;9.43;6.70;;;;;;;;;;5055533;28;20105;-85
2021/09/19 08:47:17;;;;;;;7.40;6.05;;;;;;;;;;5055373;28;20051;-84
2021/09/19 08:49:44;;;;;;;8.35;6.38;;;;;;;;;;5055093;28;20358;-84
2021/09/19 08:52:11;;;;;;;8.20;6.35;;;;;;;;;;5055657;28;20055;-84
2021/09/19 08:54:37;;;;;;;9.80;7.00;;;;;;;;;;5071887;28;20121;-83
2021/09/19 08:57:04;;;;;;;11.90;6.10;;;;;;;;;;5071981;28;20052;-83
2021/09/19 08:59:59;;;;;;;8.48;6.43;;;;;;;;;;5055901;28;20037;-85
2021/09/19 09:02:25;;;;;;;8.25;5.72;;;;;;;;;;5034084;28;20125;-84
2021/09/19 09:04:57;;;;;;;7.07;5.57;;;;;;;;;;5072018;28;20044;-84
2021/09/19 09:07:24;;;;;;;6.90;5.50;;;;;;;;;;5055446;28;20060;-83
2021/09/19 09:09:52;;;;;;;9.18;5.90;;;;;;;;;;5055250;28;20427;-83
2021/09/19 09:12:18;;;;;;;8.40;6.15;;;;;;;;;;5055856;28;20048;-84
2021/09/19 09:14:51;;;;;;;7.82;5.70;;;;;;;;;;5055246;28;20053;-84
2021/09/19 09:17:20;;;;;;;9.52;6.32;;;;;;;;;;5055929;28;20044;-84
2021/09/19 09:19:47;;;;;;;8.05;5.97;;;;;;;;;;5071691;28;20054;-84
2021/09/19 09:22:14;;;;;;;8.48;5.85;;;;;;;;;;5055855;28;20062;-84
2021/09/19 09:24:41;;;;;;;6.43;5.63;;;;;;;;;;5054938;28;20044;-83
2021/09/19 09:27:17;;;;;;;8.00;5.72;;;;;;;;;;5071629;28;20087;-83
2021/09/19 09:30:03;;;;;;;6.88;5.50;;;;;;;;;;5054509;28;20056;-83
2021/09/19 09:32:29;;;;;;;9.85;5.70;;;;;;;;;;5054751;28;20048;-86
2021/09/19 09:35:12;;;;;;;7.82;5.82;;;;;;;;;;5054935;28;20135;-84
2021/09/19 09:37:41;;;;;;;7.70;5.57;;;;;;;;;;5054818;28;20507;-84
2021/09/19 09:40:16;;;;;;;8.85;5.43;;;;;;;;;;5071355;28;20044;-84
2021/09/19 09:43:00;;;;;;;8.45;5.18;;;;;;;;;;5072203;28;20047;-84
2021/09/19 09:45:26;;;;;;;7.18;5.50;;;;;;;;;;5071848;28;20036;-85
2021/09/19 09:47:52;;;;;;;7.65;5.80;;;;;;;;;;5055354;28;20078;-84
2021/09/19 09:50:24;;;;;;;7.05;4.75;;;;;;;;;;5072256;28;20044;-84
2021/09/19 09:52:52;;;;;;;7.15;5.00;;;;;;;;;;5071654;28;20093;-85
2021/09/19 09:55:21;;;;;;;6.82;4.80;;;;;;;;;;5071499;28;20366;-84
2021/09/19 09:57:59;;;;;;;6.95;5.18;;;;;;;;;;5055206;28;20087;-84
2021/09/19 10:00:25;;;;;;;7.15;4.95;;;;;;;;;;5056202;28;20048;-83
2021/09/19 10:02:52;;;;;;;6.90;5.30;;;;;;;;;;5058930;28;20045;-84
2021/09/19 10:05:19;;;;;;;7.00;4.78;;;;;;;;;;5075696;28;20079;-84
2021/09/19 10:07:46;;;;;;;5.90;4.95;;;;;;;;;;5057711;28;20088;-83
2021/09/19 10:10:14;;;;;;;7.45;5.07;;;;;;;;;;5058232;28;20044;-84
2021/09/19 10:12:40;;;;;;;7.15;4.82;;;;;;;;;;5058074;28;20105;-84
2021/09/19 10:15:07;;;;;;;6.72;5.10;;;;;;;;;;5058319;28;20122;-84
2021/09/19 10:17:34;;;;;;;6.90;4.38;;;;;;;;;;5074664;28;20059;-86
2021/09/19 10:20:01;;;;;;;6.45;4.60;;;;;;;;;;5058743;28;20370;-84
2021/09/19 10:22:32;;;;;;;6.78;4.82;;;;;;;;;;5057950;28;20048;-87
2021/09/19 10:24:59;;;;;;;5.57;4.40;;;;;;;;;;5074579;28;20052;-84
2021/09/19 10:27:32;;;;;;;5.50;4.63;;;;;;;;;;5074742;28;20388;-85
2021/09/19 10:30:06;;;;;;;7.07;4.60;;;;;;;;;;5057962;28;20083;-84
2021/09/19 10:32:32;;;;;;;5.17;4.10;;;;;;;;;;5057904;28;20159;-85
2021/09/19 10:34:58;;;;;;;6.28;4.40;;;;;;;;;;5057418;28;20301;-84
2021/09/19 10:37:45;;;;;;;6.18;4.47;;;;;;;;;;5058519;28;20056;-85
2021/09/19 10:40:11;;;;;;;5.65;4.15;;;;;;;;;;5041145;28;20409;-84
2021/09/19 10:42:39;;;;;;;5.95;4.50;;;;;;;;;;5074831;28;20051;-85
2021/09/19 10:45:14;;;;;;;5.70;4.25;;;;;;;;;;5074923;28;20120;-84
2021/09/19 10:47:47;;;;;;;6.22;4.47;;;;;;;;;;5057943;28;20368;-85
2021/09/19 10:50:13;;;;;;;6.70;4.32;;;;;;;;;;5073888;28;20093;-84
2021/09/19 10:53:00;;;;;;;8.45;5.00;;;;;;;;;;5074758;28;20381;-84
2021/09/19 10:55:26;;;;;;;5.95;4.50;;;;;;;;;;5056948;28;20507;-84
2021/09/19 10:57:53;;;;;;;5.57;4.38;;;;;;;;;;5073904;28;20463;-84
2021/09/19 11:00:20;;;;;;;6.40;4.72;;;;;;;;;;5057981;28;20472;-85
2021/09/19 11:03:04;;;;;;;6.00;4.75;;;;;;;;;;5073811;28;20044;-84
2021/09/19 11:05:32;;;;;;;;;;;;;;;;;;5076391;28;20400;-85
2021/09/19 11:08:07;;;;;;;7.35;4.80;;;;;;;;;;5114589;28;19920;-84
2021/09/19 11:10:34;;;;;;;6.72;4.60;;;;;;;;;;5098195;28;20059;-86
2021/09/19 11:13:18;;;;;;;6.60;4.30;;;;;;;;;;5080263;28;20083;-84
2021/09/19 11:15:44;;;;;;;5.97;4.20;;;;;;;;;;5097407;28;20048;-84
2021/09/19 11:18:30;;;;;;;7.50;4.20;;;;;;;;;;5097239;28;20126;-84
2021/09/19 11:21:12;;;;;;;7.28;4.30;;;;;;;;;;5079890;28;20044;-84
2021/09/19 11:23:44;;;;;;;5.80;4.10;;;;;;;;;;5080186;28;20128;-84
2021/09/19 11:26:11;;;;;;;9.07;4.22;;;;;;;;;;5080840;28;20067;-84
2021/09/19 11:28:38;;;;;;;6.40;3.38;;;;;;;;;;5080013;28;20062;-85
2021/09/19 11:31:04;;;;;;;5.53;3.83;;;;;;;;;;5080503;28;20372;-86
2021/09/19 11:33:31;;;;;;;4.63;3.10;;;;;;;;;;5080072;28;20043;-88
2021/09/19 11:36:03;;;;;;;4.75;3.05;;;;;;;;;;5080061;28;20039;-85
2021/09/19 11:38:29;;;;;;;4.63;3.03;;;;;;;;;;5079701;28;20043;-84
2021/09/19 11:41:01;;;;;;;4.75;3.03;;;;;;;;;;5080214;28;20063;-85
2021/09/19 11:43:27;;;;;;;4.05;3.38;;;;;;;;;;5079760;28;20048;-85
2021/09/19 11:45:53;;;;;;;3.97;3.25;;;;;;;;;;5080328;28;20055;-84
2021/09/19 11:48:19;;;;;;;4.05;2.78;;;;;;;;;;5079708;28;20078;-85
2021/09/19 11:50:48;;;;;;;4.90;2.70;;;;;;;;;;5079840;28;20047;-88
2021/09/19 11:53:15;;;;;;;3.85;3.10;;;;;;;;;;5096233;28;20122;-84
2021/09/19 11:55:44;;;;;;;4.07;3.00;;;;;;;;;;5096871;28;20048;-87
2021/09/19 11:58:17;;;;;;;3.67;2.97;;;;;;;;;;5079405;28;20090;-85
2021/09/19 12:00:46;;;;;;;3.63;2.95;;;;;;;;;;5079959;28;20055;-84
2021/09/19 12:03:12;;;;;;;3.88;3.22;;;;;;;;;;5096484;28;20047;-86
2021/09/19 12:05:39;;;;;;;3.97;2.83;;;;;;;;;;5095790;28;20046;-87
2021/09/19 12:08:05;;;;;;;4.03;2.78;;;;;;;;;;5079960;28;20479;-86
2021/09/19 12:10:32;;;;;;;4.07;3.30;;;;;;;;;;5080191;28;20067;-86
2021/09/19 12:12:58;;;;;;;4.07;3.08;;;;;;;;;;5079657;28;20047;-87
2021/09/19 12:15:29;;;;;;;3.47;2.97;;;;;;;;;;5079520;28;20074;-86
2021/09/19 12:18:05;;;;;;;3.72;3.08;;;;;;;;;;5079700;28;20051;-86
2021/09/19 12:20:31;;;;;;;4.50;2.92;;;;;;;;;;5096230;28;20050;-86
2021/09/19 12:23:13;;;;;;;3.75;3.10;;;;;;;;;;5079023;28;20053;-87
2021/09/19 12:25:49;;;;;;;5.55;3.30;;;;;;;;;;5079477;28;20048;-86
2021/09/19 12:28:28;;;;;;;4.20;3.35;;;;;;;;;;5079113;28;20042;-85
2021/09/19 12:30:54;;;;;;;4.20;3.78;;;;;;;;;;5096394;28;20039;-85
2021/09/19 12:33:20;;;;;;;4.65;3.67;;;;;;;;;;5079146;28;20048;-86
2021/09/19 12:35:46;;;;;;;7.05;3.90;;;;;;;;;;5078705;28;20048;-86
2021/09/19 12:38:14;;;;;;;5.43;4.07;;;;;;;;;;5095916;28;20043;-86
2021/09/19 12:40:40;;;;;;;4.10;3.70;;;;;;;;;;5079362;28;20054;-86
2021/09/19 12:43:08;;;;;;;5.82;4.20;;;;;;;;;;5095474;28;20085;-86
2021/09/19 12:45:34;;;;;;;5.70;3.90;;;;;;;;;;5079101;28;20063;-90
2021/09/19 12:48:00;;;;;;;5.30;3.80;;;;;;;;;;5078925;28;20121;-86
2021/09/19 12:50:27;;;;;;;5.13;4.43;;;;;;;;;;5096064;28;20054;-86
2021/09/19 12:52:57;;;;;;;5.05;3.95;;;;;;;;;;5079073;28;20059;-86
2021/09/19 12:55:24;;;;;;;5.35;4.20;;;;;;;;;;5095761;28;20051;-85
2021/09/19 12:57:52;;;;;;;4.85;4.30;;;;;;;;;;5095625;28;20044;-85
2021/09/19 13:00:19;;;;;;;5.32;4.40;;;;;;;;;;5095668;28;20044;-86
2021/09/19 13:03:05;;;;;;;5.35;4.53;;;;;;;;;;5078682;28;20039;-85
2021/09/19 13:05:31;;;;;;;5.97;4.65;;;;;;;;;;5078541;28;20092;-86
2021/09/19 13:07:58;;;;;;;7.15;4.85;;;;;;;;;;5078600;28;20047;-84
2021/09/19 13:10:24;;;;;;;5.40;4.85;;;;;;;;;;5079412;28;20485;-84
2021/09/19 13:12:51;;;;;;;5.45;4.90;;;;;;;;;;5078644;28;20043;-85
2021/09/19 13:15:20;;;;;;;5.35;4.85;;;;;;;;;;5095638;28;20078;-85
2021/09/19 13:17:46;;;;;;;7.70;4.95;;;;;;;;;;5078661;28;20498;-86
2021/09/19 13:20:12;;;;;;;7.07;5.00;;;;;;;;;;5078396;28;20040;-85
2021/09/19 13:22:38;;;;;;;5.32;4.82;;;;;;;;;;5078589;28;20391;-85
2021/09/19 13:25:05;;;;;;;6.18;4.68;;;;;;;;;;5095325;28;20501;-84
2021/09/19 13:27:31;;;;;;;5.05;4.47;;;;;;;;;;5095344;28;20438;-85
2021/09/19 13:29:57;;;;;;;6.47;4.70;;;;;;;;;;5078857;28;20035;-85
2021/09/19 13:32:23;;;;;;;6.15;4.80;;;;;;;;;;5078551;28;20097;-85
2021/09/19 13:34:50;;;;;;;4.80;4.30;;;;;;;;;;5078672;28;20079;-85
2021/09/19 13:37:16;;;;;;;5.60;4.50;;;;;;;;;;5082003;28;20044;-86
2021/09/19 13:39:43;;;;;;;4.78;4.03;;;;;;;;;;5082399;28;20149;-85
2021/09/19 13:42:09;;;;;;;4.93;3.95;;;;;;;;;;5098914;28;20380;-85
2021/09/19 13:44:35;;;;;;;7.45;4.05;;;;;;;;;;5098988;28;20419;-87
2021/09/19 13:47:01;;;;;;;4.53;3.88;;;;;;;;;;5098982;28;20070;-86
2021/09/19 13:49:27;;;;;;;6.03;4.07;;;;;;;;;;5081893;28;20065;-84
2021/09/19 13:51:54;;;;;;;6.90;4.15;;;;;;;;;;5082211;28;20054;-85
2021/09/19 13:54:21;;;;;;;5.97;4.18;;;;;;;;;;5082706;28;20478;-84
2021/09/19 13:56:50;;;;;;;5.28;3.80;;;;;;;;;;5098783;28;20044;-85
2021/09/19 13:59:22;;;;;;;4.95;3.75;;;;;;;;;;5081662;28;20044;-86
2021/09/19 14:01:52;;;;;;;4.90;4.32;;;;;;;;;;5082030;28;20135;-84
2021/09/19 14:04:19;;;;;;;4.97;3.65;;;;;;;;;;5081772;28;20050;-85
2021/09/19 14:06:45;;;;;;;6.07;3.97;;;;;;;;;;5081188;28;20051;-85
2021/09/19 14:09:11;;;;;;;4.18;3.55;;;;;;;;;;5081167;28;20051;-85
2021/09/19 14:11:38;;;;;;;4.28;3.60;;;;;;;;;;5098955;28;20521;-87
2021/09/19 14:14:05;;;;;;;5.65;3.90;;;;;;;;;;5098271;28;20083;-85
2021/09/19 14:16:31;;;;;;;6.35;3.88;;;;;;;;;;5081378;28;20052;-86
2021/09/19 14:18:57;;;;;;;5.63;3.85;;;;;;;;;;5081176;28;20043;-86
2021/09/19 14:21:23;;;;;;;4.72;3.70;;;;;;;;;;5098508;28;20043;-85
2021/09/19 14:23:49;;;;;;;5.00;3.78;;;;;;;;;;5097902;28;20056;-86
2021/09/19 14:26:17;;;;;;;5.00;3.97;;;;;;;;;;5081345;28;20509;-85
2021/09/19 14:28:46;;;;;;;4.78;3.45;;;;;;;;;;5098013;28;20099;-85
2021/09/19 14:31:13;;;;;;;6.03;3.72;;;;;;;;;;5098159;28;20046;-86
2021/09/19 14:33:39;;;;;;;5.45;3.53;;;;;;;;;;5098156;28;20043;-89
2021/09/19 14:36:05;;;;;;;5.45;3.30;;;;;;;;;;5097840;28;20044;-85
2021/09/19 14:38:31;;;;;;;4.70;3.50;;;;;;;;;;5081209;28;20140;-84
2021/09/19 14:40:58;;;;;;;4.05;3.25;;;;;;;;;;5081812;28;20408;-89
2021/09/19 14:43:24;;;;;;;5.25;3.60;;;;;;;;;;5081917;28;20054;-86